Porto Amazonas, Brazil
Current Conditions -  °F | °C
As of 5:00 PM on Sunday 23 Nov 2014 (Local Time) from SBBI Reporting Station
Scattered Clouds Scattered Clouds  
Wind Chill: 72°   Ceiling: Unl
Heat Index: 72°   Visibility: 6mi
Dew Point: 64°   Wind: 8mph
Humidity: 78%   Direction: 100°E
Pressure: 30"   Gusts: NA
Location:  25.55°S, 49.9°W
Report Text: SBBI 231900Z 10007KT 9999 SCT020 22/18 Q1016
Loading
Personal Weather Stations






























Interactive Weather Map New forecast layout! Learn more

10-Day Weather Forecast

Advertisements
Track Severe Weather on mobile